Time;durP1;ratioP1;P1;durP2;ratioP2;P2;SDS_P1;SDS_P2;PMS_P1;PMS_P2;Temp;Humidity;BMP_temperature;BMP_pressure;BME280_temperature;BME280_humidity;BME280_pressure;Samples;Min_cycle;Max_cycle;Signal;HPM_P1;HPM_P2
2022/01/15 00:00:19;;;;;;;31.53;15.27;;;5.10;99.90;;;;;;5083034;28;20448;-83
2022/01/15 00:02:46;;;;;;;35.30;17.57;;;4.90;99.90;;;;;;5075658;28;20480;-82
2022/01/15 00:05:13;;;;;;;31.60;17.20;;;5.00;99.90;;;;;;5081655;28;20468;-83
2022/01/15 00:07:41;;;;;;;33.47;17.30;;;4.80;99.90;;;;;;5077175;28;20457;-82
2022/01/15 00:10:08;;;;;;;35.13;18.37;;;4.80;99.90;;;;;;5076244;28;20459;-83
2022/01/15 00:12:40;;;;;;;33.53;17.00;;;4.90;99.90;;;;;;5078508;28;20455;-81
2022/01/15 00:15:17;;;;;;;38.00;20.47;;;4.90;99.90;;;;;;5076669;28;20512;-81
2022/01/15 00:17:48;;;;;;;35.67;18.17;;;5.00;99.90;;;;;;5082420;28;20452;-82
2022/01/15 00:20:16;;;;;;;34.03;18.27;;;5.00;99.90;;;;;;5082099;28;20881;-81
2022/01/15 00:22:43;;;;;;;37.00;17.67;;;5.10;99.90;;;;;;5082451;28;20486;-82
2022/01/15 00:25:10;;;;;;;36.83;18.73;;;5.10;99.90;;;;;;5090229;28;20463;-83
2022/01/15 00:27:38;;;;;;;36.87;18.43;;;5.00;99.90;;;;;;5093803;28;20433;-82
2022/01/15 00:30:06;;;;;;;45.60;20.77;;;4.80;99.90;;;;;;5095654;28;20432;-82
2022/01/15 00:32:32;;;;;;;45.33;21.93;;;4.60;99.90;;;;;;5094430;28;20515;-81
2022/01/15 00:35:00;;;;;;;51.63;22.63;;;4.60;99.90;;;;;;5074960;28;20492;-82
2022/01/15 00:37:31;;;;;;;41.83;19.77;;;4.80;99.90;;;;;;5070249;28;20463;-80
2022/01/15 00:39:59;;;;;;;37.17;20.73;;;4.80;99.90;;;;;;5064754;28;20451;-80
2022/01/15 00:42:30;;;;;;;43.10;20.73;;;4.80;99.90;;;;;;5062219;28;20570;-79
2022/01/15 00:44:59;;;;;;;40.27;20.07;;;4.70;99.90;;;;;;5068299;28;20479;-79
2022/01/15 00:47:31;;;;;;;45.30;20.43;;;4.50;99.90;;;;;;5080984;28;20465;-80
2022/01/15 00:49:58;;;;;;;42.97;19.87;;;4.80;99.90;;;;;;5082506;28;20485;-80
2022/01/15 00:52:25;;;;;;;42.10;18.40;;;4.80;99.90;;;;;;5070762;28;20457;-80
2022/01/15 00:54:52;;;;;;;44.77;21.33;;;4.60;99.90;;;;;;5060756;28;20488;-80
2022/01/15 00:57:19;;;;;;;45.17;17.90;;;4.70;99.90;;;;;;5059703;28;20430;-80
2022/01/15 00:59:45;;;;;;;36.57;20.13;;;4.70;99.90;;;;;;5059428;28;20462;-83
2022/01/15 01:02:12;;;;;;;39.30;17.40;;;4.80;99.90;;;;;;5069225;28;20475;-81
2022/01/15 01:04:39;;;;;;;38.70;15.73;;;4.80;99.90;;;;;;5068522;28;20567;-80
2022/01/15 01:07:07;;;;;;;32.70;15.97;;;4.70;99.90;;;;;;5059968;28;20517;-83
2022/01/15 01:09:53;;;;;;;33.90;16.07;;;4.40;99.90;;;;;;5057308;28;20444;-83
2022/01/15 01:20:54;;;;;;;33.07;15.87;;;4.10;99.90;;;;;;5062956;28;20459;-82
2022/01/15 01:23:21;;;;;;;36.00;16.00;;;4.40;99.90;;;;;;5060116;28;20528;-82
2022/01/15 01:25:52;;;;;;;38.27;16.00;;;4.60;99.90;;;;;;5127123;22;20490;-83
2022/01/15 01:28:33;;;;;;;35.30;14.43;;;4.50;99.90;;;;;;5063571;28;20609;-82
2022/01/15 01:31:08;;;;;;;34.00;14.00;;;4.40;99.90;;;;;;5062799;28;20466;-83
2022/01/15 01:33:38;;;;;;;33.00;16.60;;;4.40;99.90;;;;;;5048070;28;20610;-82
2022/01/15 01:36:41;;;;;;;40.47;16.70;;;4.50;99.90;;;;;;5085256;28;20816;-81
2022/01/15 01:39:14;;;;;;;33.90;16.33;;;4.50;99.90;;;;;;5081685;28;20540;-82
2022/01/15 01:41:48;;;;;;;40.13;16.60;;;4.50;99.90;;;;;;5083872;28;20461;-82
2022/01/15 01:44:18;;;;;;;32.00;15.00;;;4.40;99.90;;;;;;5065113;28;20480;-83
2022/01/15 01:46:49;;;;;;;38.97;15.60;;;4.40;99.90;;;;;;5082992;28;20892;-82
2022/01/15 01:49:16;;;;;;;30.73;13.90;;;4.60;99.90;;;;;;5082674;28;20455;-82
2022/01/15 01:51:43;;;;;;;32.93;16.90;;;4.50;99.90;;;;;;5065665;28;20462;-82
2022/01/15 01:54:12;;;;;;;32.23;15.50;;;4.50;99.90;;;;;;5064893;28;20471;-82
2022/01/15 01:56:39;;;;;;;30.63;15.23;;;4.50;99.90;;;;;;5066558;28;20451;-82
2022/01/15 01:59:07;;;;;;;27.40;13.40;;;4.40;99.90;;;;;;5087048;28;21928;-81
2022/01/15 02:01:35;;;;;;;32.37;14.63;;;4.50;99.90;;;;;;5087622;28;20460;-82
2022/01/15 02:04:03;;;;;;;31.97;14.00;;;4.30;99.90;;;;;;5088435;28;20467;-82
2022/01/15 02:06:29;;;;;;;28.33;14.73;;;4.40;99.90;;;;;;5079884;28;20478;-81
2022/01/15 02:08:58;;;;;;;27.90;13.43;;;4.40;99.90;;;;;;5077855;28;20444;-81
2022/01/15 02:11:25;;;;;;;21.93;13.20;;;4.30;99.90;;;;;;5074876;28;20435;-82
2022/01/15 02:13:52;;;;;;;26.73;12.77;;;4.40;99.90;;;;;;5073445;28;20470;-82
2022/01/15 02:16:19;;;;;;;26.43;11.80;;;4.30;99.90;;;;;;5091200;28;20454;-81
2022/01/15 02:18:46;;;;;;;37.10;13.83;;;4.30;99.90;;;;;;5099177;28;20450;-81
2022/01/15 02:23:49;;;;;;;23.23;11.30;;;4.40;99.90;;;;;;5108725;28;20474;-81
2022/01/15 02:26:19;;;;;;;26.23;10.63;;;4.40;99.90;;;;;;5109172;28;20467;-81
2022/01/15 02:28:57;;;;;;;27.37;10.93;;;4.40;99.90;;;;;;5090632;28;20446;-81
2022/01/15 02:31:26;;;;;;;24.20;11.73;;;4.40;99.90;;;;;;5109215;28;21578;-81
2022/01/15 02:33:56;;;;;;;28.43;13.97;;;4.40;99.90;;;;;;5089206;28;20470;-81
2022/01/15 02:36:28;;;;;;;26.67;13.27;;;4.30;99.90;;;;;;5107246;28;20469;-82
2022/01/15 02:38:55;;;;;;;27.63;14.20;;;4.20;99.90;;;;;;5076055;28;20456;-82
2022/01/15 02:41:29;;;;;;;28.20;14.50;;;4.30;99.90;;;;;;5083266;28;20453;-81
2022/01/15 02:43:58;;;;;;;23.20;11.70;;;4.40;99.90;;;;;;5085996;28;20491;-81
2022/01/15 02:48:57;;;;;;;24.23;12.60;;;4.20;99.90;;;;;;5083461;28;20547;-82
2022/01/15 02:51:29;;;;;;;22.43;12.17;;;4.10;99.90;;;;;;5063428;28;20451;-81
2022/01/15 02:53:56;;;;;;;25.60;12.20;;;4.20;99.90;;;;;;5081311;28;20569;-81
2022/01/15 02:56:37;;;;;;;23.77;12.77;;;4.20;99.90;;;;;;5080361;28;20497;-82
2022/01/15 02:59:06;;;;;;;25.17;12.10;;;4.40;99.90;;;;;;5081102;28;20467;-81
2022/01/15 03:01:34;;;;;;;23.07;11.60;;;4.40;99.90;;;;;;5062040;28;20558;-81
2022/01/15 03:04:02;;;;;;;20.10;10.97;;;4.40;99.90;;;;;;5078692;28;20543;-81
2022/01/15 03:06:29;;;;;;;21.50;12.10;;;4.40;99.90;;;;;;5061931;28;20462;-82
2022/01/15 03:08:55;;;;;;;23.70;11.40;;;4.40;99.90;;;;;;5062603;28;20473;-81
2022/01/15 03:11:23;;;;;;;23.07;12.27;;;4.40;99.90;;;;;;5079333;28;20473;-82
2022/01/15 03:13:50;;;;;;;21.70;11.03;;;4.30;99.90;;;;;;5061877;28;20489;-82
2022/01/15 03:16:19;;;;;;;20.63;12.00;;;4.40;99.90;;;;;;5080522;28;20463;-80
2022/01/15 03:18:47;;;;;;;21.27;11.90;;;4.40;99.90;;;;;;5080380;28;20671;-81
2022/01/15 03:21:15;;;;;;;22.37;10.53;;;4.40;99.90;;;;;;5063798;28;20830;-82
2022/01/15 03:23:42;;;;;;;25.00;12.23;;;4.30;99.90;;;;;;5063339;28;20507;-81
2022/01/15 03:26:11;;;;;;;23.33;12.77;;;4.40;99.90;;;;;;5083462;28;20447;-81
2022/01/15 03:28:38;;;;;;;24.50;11.77;;;4.40;99.90;;;;;;5065426;28;20443;-81
2022/01/15 03:31:05;;;;;;;20.40;11.80;;;4.40;99.90;;;;;;5080423;28;20650;-81
2022/01/15 03:33:32;;;;;;;29.83;13.87;;;4.20;99.90;;;;;;5088336;28;20592;-79
2022/01/15 03:36:02;;;;;;;24.67;10.80;;;4.40;99.90;;;;;;5083605;28;20446;-83
2022/01/15 03:38:29;;;;;;;20.87;11.90;;;4.30;99.90;;;;;;5080486;28;20474;-83
2022/01/15 03:40:55;;;;;;;22.97;12.63;;;4.20;99.90;;;;;;5080974;28;20458;-81
2022/01/15 03:43:22;;;;;;;21.90;11.57;;;4.20;99.90;;;;;;5063001;28;20490;-81
2022/01/15 03:45:49;;;;;;;23.00;12.23;;;4.20;99.90;;;;;;5080548;28;20467;-83
2022/01/15 03:48:16;;;;;;;22.57;11.10;;;4.20;99.90;;;;;;5064439;28;20459;-83
2022/01/15 03:50:43;;;;;;;25.97;10.90;;;4.20;99.90;;;;;;5083295;28;20461;-81
2022/01/15 03:53:09;;;;;;;22.07;11.27;;;4.20;99.90;;;;;;5065630;28;20480;-82
2022/01/15 03:55:36;;;;;;;19.63;10.67;;;4.30;99.90;;;;;;5065620;28;20454;-82
2022/01/15 03:58:03;;;;;;;24.00;12.20;;;4.30;99.90;;;;;;5083305;28;20449;-81
2022/01/15 04:00:30;;;;;;;21.70;11.07;;;4.30;99.90;;;;;;5066255;28;20478;-83
2022/01/15 04:02:57;;;;;;;31.23;14.47;;;4.40;99.90;;;;;;5079573;28;20507;-82
2022/01/15 04:05:24;;;;;;;26.10;12.90;;;4.30;99.90;;;;;;5100933;28;20567;-82
2022/01/15 04:07:51;;;;;;;15.27;9.73;;;4.30;99.90;;;;;;5072400;28;20459;-82
2022/01/15 04:10:18;;;;;;;14.60;10.20;;;4.30;99.90;;;;;;5083590;28;20469;-82
2022/01/15 04:12:44;;;;;;;18.37;11.13;;;4.20;99.90;;;;;;5064256;28;20955;-82
2022/01/15 04:15:13;;;;;;;15.73;9.63;;;4.10;99.90;;;;;;5065173;28;20489;-81
2022/01/15 04:17:46;;;;;;;15.00;10.03;;;3.90;99.90;;;;;;5082083;28;20465;-79
2022/01/15 04:20:16;;;;;;;17.60;10.50;;;3.70;99.90;;;;;;5085376;28;20463;-82
2022/01/15 04:22:43;;;;;;;17.20;9.73;;;3.70;99.90;;;;;;5100436;28;20471;-81
2022/01/15 04:25:10;;;;;;;15.60;10.10;;;3.80;99.90;;;;;;5087543;28;20478;-84
2022/01/15 04:27:38;;;;;;;16.20;9.40;;;4.00;99.90;;;;;;5086059;28;20478;-83
2022/01/15 04:30:09;;;;;;;15.57;9.10;;;4.00;99.90;;;;;;5086960;28;20457;-82
2022/01/15 04:32:36;;;;;;;21.63;11.10;;;4.00;99.90;;;;;;5088045;28;20558;-84
2022/01/15 04:35:03;;;;;;;17.27;8.87;;;3.90;99.90;;;;;;5069614;28;20476;-82
2022/01/15 04:37:38;;;;;;;17.57;10.50;;;4.00;99.90;;;;;;5093933;28;20462;-82
2022/01/15 04:40:06;;;;;;;15.47;10.40;;;3.90;99.90;;;;;;5100464;28;20470;-82
2022/01/15 04:42:33;;;;;;;18.20;12.50;;;3.80;99.90;;;;;;5065598;28;20471;-82
2022/01/15 04:45:01;;;;;;;13.60;8.90;;;3.90;99.90;;;;;;5082900;28;20474;-81
2022/01/15 04:47:27;;;;;;;14.03;8.70;;;3.90;99.90;;;;;;5083207;28;20461;-83
2022/01/15 04:49:55;;;;;;;14.67;9.93;;;3.70;99.90;;;;;;5083033;28;20445;-81
2022/01/15 04:52:22;;;;;;;8.40;6.10;;;3.60;99.90;;;;;;5084289;28;20444;-81
2022/01/15 04:54:49;;;;;;;12.60;8.40;;;3.70;99.90;;;;;;5065742;28;20468;-83
2022/01/15 04:57:17;;;;;;;9.37;5.60;;;3.60;99.90;;;;;;5094135;28;20754;-82
2022/01/15 04:59:43;;;;;;;12.20;7.20;;;3.60;99.90;;;;;;5086497;28;20448;-82
2022/01/15 05:02:10;;;;;;;12.10;6.70;;;3.50;99.90;;;;;;5096809;28;20444;-81
2022/01/15 05:04:37;;;;;;;11.67;8.13;;;3.40;99.90;;;;;;5094485;28;20490;-82
2022/01/15 05:07:08;;;;;;;14.70;8.10;;;3.30;99.90;;;;;;5084740;28;20838;-83
2022/01/15 05:09:35;;;;;;;13.47;7.20;;;3.50;99.90;;;;;;5098862;28;20780;-82
2022/01/15 05:12:12;;;;;;;11.47;8.43;;;3.60;99.90;;;;;;5099267;28;21000;-82
2022/01/15 05:14:38;;;;;;;15.90;10.10;;;3.50;99.90;;;;;;5092959;28;21002;-80
2022/01/15 05:17:06;;;;;;;12.90;8.70;;;3.50;99.90;;;;;;5093815;28;21024;-83
2022/01/15 05:19:33;;;;;;;19.33;12.13;;;3.60;99.90;;;;;;5079652;28;20450;-81
2022/01/15 05:22:00;;;;;;;15.33;10.27;;;3.50;99.90;;;;;;5067512;28;20465;-81
2022/01/15 05:24:29;;;;;;;20.00;10.50;;;3.40;99.90;;;;;;5083496;28;20483;-83
2022/01/15 05:26:56;;;;;;;14.87;9.20;;;3.70;99.90;;;;;;5067086;28;20460;-84
2022/01/15 05:29:23;;;;;;;14.57;9.07;;;3.70;99.90;;;;;;5068090;28;20448;-85
2022/01/15 05:31:49;;;;;;;13.80;9.63;;;3.70;99.90;;;;;;5083500;28;20447;-85
2022/01/15 05:34:17;;;;;;;14.20;8.90;;;3.70;99.90;;;;;;5086624;28;20504;-85
2022/01/15 05:36:43;;;;;;;14.47;9.10;;;3.30;99.90;;;;;;5085985;28;20452;-82
2022/01/15 05:39:10;;;;;;;15.10;8.40;;;3.20;99.90;;;;;;5067531;28;20459;-82
2022/01/15 05:41:37;;;;;;;13.50;9.30;;;3.40;99.90;;;;;;5068300;28;20450;-81
2022/01/15 05:44:05;;;;;;;11.03;8.53;;;3.50;99.90;;;;;;5072189;28;20482;-82
2022/01/15 05:46:36;;;;;;;16.47;8.27;;;3.50;99.90;;;;;;5088584;28;20486;-81
2022/01/15 05:49:04;;;;;;;15.33;9.70;;;3.60;99.90;;;;;;5088560;28;20572;-82
2022/01/15 05:51:31;;;;;;;11.03;7.43;;;3.60;99.90;;;;;;5068893;28;20458;-82
2022/01/15 05:54:03;;;;;;;12.37;9.17;;;3.70;99.90;;;;;;5067778;28;20485;-82
2022/01/15 05:56:30;;;;;;;11.70;7.80;;;3.40;99.90;;;;;;5086933;28;20456;-83
2022/01/15 05:58:57;;;;;;;15.57;9.60;;;3.50;99.90;;;;;;5067267;28;20566;-83
2022/01/15 06:01:24;;;;;;;11.83;8.43;;;3.40;99.90;;;;;;5067091;28;20455;-82
2022/01/15 06:03:51;;;;;;;11.90;7.90;;;3.30;99.90;;;;;;5067689;28;20577;-82
2022/01/15 06:06:18;;;;;;;16.90;9.67;;;3.50;99.90;;;;;;5084578;28;20452;-80
2022/01/15 06:08:44;;;;;;;13.10;8.07;;;3.40;99.90;;;;;;5085402;28;20466;-83
2022/01/15 06:11:11;;;;;;;13.10;9.20;;;3.50;99.90;;;;;;5093004;28;20458;-81
2022/01/15 06:13:38;;;;;;;12.27;8.57;;;3.40;99.90;;;;;;5072128;28;20484;-85
2022/01/15 06:16:05;;;;;;;13.30;8.23;;;3.70;99.90;;;;;;5088445;28;20552;-81
2022/01/15 06:18:32;;;;;;;11.83;7.83;;;3.50;99.90;;;;;;5088773;28;20460;-83
2022/01/15 06:20:58;;;;;;;10.43;6.83;;;3.40;99.90;;;;;;5087784;28;20981;-82
2022/01/15 06:23:25;;;;;;;13.17;7.93;;;3.60;99.90;;;;;;5086759;28;20498;-82
2022/01/15 06:25:52;;;;;;;11.37;7.13;;;3.60;99.90;;;;;;5069908;28;20467;-84
2022/01/15 06:28:19;;;;;;;12.33;9.03;;;3.60;99.90;;;;;;5068517;28;20552;-85
2022/01/15 06:30:46;;;;;;;11.13;8.47;;;3.50;99.90;;;;;;5068685;28;20451;-82
2022/01/15 06:33:13;;;;;;;12.03;8.23;;;3.80;99.90;;;;;;5085612;28;20999;-82
2022/01/15 06:35:40;;;;;;;12.37;8.40;;;3.90;99.90;;;;;;5087583;28;20820;-83
2022/01/15 06:38:08;;;;;;;11.53;7.97;;;3.90;99.90;;;;;;5086624;28;20966;-86
2022/01/15 06:40:35;;;;;;;10.87;8.77;;;3.80;99.90;;;;;;5086192;28;20466;-83
2022/01/15 06:43:02;;;;;;;13.00;8.60;;;3.70;99.90;;;;;;5085506;28;20464;-83
2022/01/15 06:45:30;;;;;;;12.93;8.57;;;3.80;99.90;;;;;;5086833;28;20479;-82
2022/01/15 06:47:57;;;;;;;9.77;8.70;;;3.70;99.90;;;;;;5069079;28;20509;-84
2022/01/15 06:50:25;;;;;;;9.80;6.40;;;3.60;99.90;;;;;;5086703;28;20504;-84
2022/01/15 06:52:52;;;;;;;12.07;8.03;;;3.50;99.90;;;;;;5068168;28;21787;-81
2022/01/15 06:55:19;;;;;;;11.40;8.60;;;3.50;99.90;;;;;;5069305;28;20472;-85
2022/01/15 06:57:46;;;;;;;10.70;8.20;;;3.50;99.90;;;;;;5068912;28;20490;-83
2022/01/15 07:00:14;;;;;;;10.00;4.07;;;3.50;99.90;;;;;;5087667;28;20456;-81
2022/01/15 07:02:41;;;;;;;11.80;7.23;;;3.60;99.90;;;;;;5070940;28;20470;-82
2022/01/15 07:05:09;;;;;;;10.20;7.17;;;3.50;99.90;;;;;;5069732;28;20566;-80
2022/01/15 07:07:40;;;;;;;11.03;7.60;;;3.50;99.90;;;;;;5088202;28;20470;-78
2022/01/15 07:10:08;;;;;;;10.43;8.03;;;3.50;99.90;;;;;;5072819;28;20448;-82
2022/01/15 07:12:36;;;;;;;13.50;8.80;;;3.60;99.90;;;;;;5073914;28;20439;-83
2022/01/15 07:15:04;;;;;;;9.47;7.10;;;3.60;99.90;;;;;;5072246;28;20488;-85
2022/01/15 07:17:31;;;;;;;8.73;6.63;;;3.70;99.90;;;;;;5069300;28;21147;-82
2022/01/15 07:19:58;;;;;;;10.40;7.13;;;3.70;99.90;;;;;;5069982;28;20489;-83
2022/01/15 07:22:26;;;;;;;10.97;7.67;;;3.70;99.90;;;;;;5070517;28;21474;-86
2022/01/15 07:24:52;;;;;;;6.77;5.40;;;3.70;99.90;;;;;;5068937;28;20602;-83
2022/01/15 07:27:19;;;;;;;10.47;8.07;;;3.70;99.90;;;;;;5091475;28;20543;-82
2022/01/15 07:29:48;;;;;;;11.27;7.50;;;3.70;99.90;;;;;;5089964;28;20471;-82
2022/01/15 07:32:17;;;;;;;10.50;7.80;;;3.80;99.90;;;;;;5086909;28;20952;-84
2022/01/15 07:34:44;;;;;;;10.87;7.30;;;3.80;99.90;;;;;;5067498;28;20486;-83
2022/01/15 07:37:11;;;;;;;7.77;6.70;;;3.70;99.90;;;;;;5090831;28;20567;-85
2022/01/15 07:39:38;;;;;;;10.80;8.27;;;3.70;99.90;;;;;;5074559;28;20472;-83
2022/01/15 07:42:06;;;;;;;8.73;7.13;;;3.80;99.90;;;;;;5073261;28;20513;-80
2022/01/15 07:44:33;;;;;;;10.17;6.70;;;3.80;99.90;;;;;;5073536;28;20578;-82
2022/01/15 07:47:01;;;;;;;10.03;6.00;;;3.80;99.90;;;;;;5092710;28;20828;-82
2022/01/15 07:49:28;;;;;;;12.13;9.03;;;3.90;99.90;;;;;;5074828;28;20451;-82
2022/01/15 07:51:56;;;;;;;9.03;5.37;;;4.00;99.90;;;;;;5072983;28;20759;-85
2022/01/15 07:54:23;;;;;;;11.47;8.73;;;4.10;99.90;;;;;;5091516;28;20462;-85
2022/01/15 07:56:51;;;;;;;11.07;7.20;;;4.00;99.90;;;;;;5069856;28;20460;-82
2022/01/15 07:59:17;;;;;;;10.00;7.00;;;3.80;99.90;;;;;;5072813;28;20969;-83
2022/01/15 08:01:44;;;;;;;12.37;8.73;;;4.00;99.90;;;;;;5097928;28;20454;-84
2022/01/15 08:04:14;;;;;;;10.93;8.13;;;4.10;99.90;;;;;;5097596;28;20493;-82
2022/01/15 08:06:48;;;;;;;11.77;7.77;;;4.20;99.90;;;;;;5076610;28;20537;-84
2022/01/15 08:09:15;;;;;;;9.53;8.00;;;4.10;99.90;;;;;;5099047;28;20452;-82
2022/01/15 08:11:42;;;;;;;11.37;8.40;;;4.20;99.90;;;;;;5095718;28;20449;-83
2022/01/15 08:14:12;;;;;;;10.60;7.13;;;4.00;99.90;;;;;;5069324;28;20472;-81
2022/01/15 08:16:39;;;;;;;9.93;8.20;;;4.10;99.90;;;;;;5080728;28;20452;-83
2022/01/15 08:19:06;;;;;;;9.50;7.33;;;4.00;99.90;;;;;;5078677;28;20957;-83
2022/01/15 08:21:42;;;;;;;11.77;8.23;;;4.00;99.90;;;;;;5102542;28;20464;-84
2022/01/15 08:24:10;;;;;;;15.73;9.27;;;4.00;99.90;;;;;;5090774;28;20475;-80
2022/01/15 08:26:47;;;;;;;10.50;8.80;;;4.10;99.90;;;;;;5096021;28;20443;-84
2022/01/15 08:29:19;;;;;;;8.60;7.00;;;4.10;99.90;;;;;;5097427;28;20461;-85
2022/01/15 08:31:45;;;;;;;10.10;6.87;;;3.80;99.90;;;;;;5083079;28;20438;-82
2022/01/15 08:34:12;;;;;;;8.30;6.63;;;4.00;99.90;;;;;;5085860;28;20470;-83
2022/01/15 08:36:42;;;;;;;8.23;5.70;;;4.10;99.90;;;;;;5084302;28;20475;-83
2022/01/15 08:39:09;;;;;;;15.03;8.37;;;4.30;99.90;;;;;;5090977;28;20465;-83
2022/01/15 08:41:47;;;;;;;11.93;8.50;;;4.20;99.90;;;;;;5099039;28;20531;-82
2022/01/15 08:44:23;;;;;;;12.13;8.07;;;4.10;99.90;;;;;;5076721;28;20536;-79
2022/01/15 08:46:56;;;;;;;9.37;5.57;;;4.10;99.90;;;;;;5095115;28;20448;-82
2022/01/15 08:49:26;;;;;;;9.10;6.70;;;4.20;99.90;;;;;;5084794;28;20450;-83
2022/01/15 08:51:55;;;;;;;10.80;7.87;;;4.10;99.90;;;;;;5100846;28;20441;-82
2022/01/15 08:54:25;;;;;;;9.60;7.20;;;4.10;99.90;;;;;;5079274;28;20470;-82
2022/01/15 08:56:53;;;;;;;9.87;7.83;;;4.20;99.90;;;;;;5078909;28;20490;-84
2022/01/15 08:59:23;;;;;;;9.80;8.07;;;4.30;99.90;;;;;;5075128;28;20457;-84
2022/01/15 09:01:56;;;;;;;10.63;8.07;;;4.10;99.90;;;;;;5078925;28;20488;-84
2022/01/15 09:04:34;;;;;;;11.93;8.10;;;4.10;99.90;;;;;;5075216;28;20483;-83
2022/01/15 09:07:02;;;;;;;11.13;7.00;;;4.20;99.90;;;;;;5077584;28;20888;-84
2022/01/15 09:09:29;;;;;;;9.37;7.70;;;4.00;99.90;;;;;;5077882;28;20467;-82
2022/01/15 09:11:58;;;;;;;10.87;8.03;;;3.90;99.90;;;;;;5067407;28;20863;-82
2022/01/15 09:14:25;;;;;;;7.57;6.47;;;3.80;99.90;;;;;;5086558;22;21710;-81
2022/01/15 09:16:51;;;;;;;10.97;8.23;;;4.10;99.90;;;;;;5043906;28;20454;-81
2022/01/15 09:19:18;;;;;;;11.83;8.33;;;4.30;99.90;;;;;;5065014;28;20491;-81
2022/01/15 09:21:46;;;;;;;9.90;7.17;;;4.10;99.90;;;;;;5067120;28;20463;-81
2022/01/15 09:24:13;;;;;;;10.27;6.90;;;4.10;99.90;;;;;;5049068;28;20501;-81
2022/01/15 09:26:49;;;;;;;11.37;7.70;;;4.30;99.90;;;;;;5062243;28;20465;-82
2022/01/15 09:32:04;;;;;;;8.80;7.23;;;4.50;99.90;;;;;;5059687;28;20440;-81
2022/01/15 09:34:33;;;;;;;10.77;7.30;;;4.60;99.90;;;;;;5045780;28;20491;-80
2022/01/15 09:37:06;;;;;;;10.93;7.40;;;4.70;99.90;;;;;;5032252;28;20806;-82
2022/01/15 09:39:34;;;;;;;10.00;6.73;;;4.90;99.90;;;;;;5049610;28;20459;-82
2022/01/15 09:42:01;;;;;;;10.00;7.37;;;4.60;99.90;;;;;;5050606;28;20586;-80
2022/01/15 09:44:27;;;;;;;11.80;7.53;;;4.70;99.90;;;;;;5033651;28;20562;-81
2022/01/15 09:46:54;;;;;;;6.60;5.33;;;4.80;99.90;;;;;;5047095;28;20821;-82
2022/01/15 09:49:24;;;;;;;10.07;5.60;;;4.70;99.90;;;;;;5043215;28;20708;-82
2022/01/15 09:51:51;;;;;;;10.30;7.77;;;4.60;99.90;;;;;;5044928;28;20445;-81
2022/01/15 09:54:19;;;;;;;8.50;6.70;;;4.40;99.90;;;;;;5045811;28;20980;-82
2022/01/15 09:56:49;;;;;;;8.97;6.67;;;4.40;99.90;;;;;;5044509;28;20571;-82
2022/01/15 09:59:17;;;;;;;11.23;8.30;;;4.50;99.90;;;;;;5041156;28;20864;-80
2022/01/15 10:01:44;;;;;;;9.60;6.03;;;4.40;99.90;;;;;;5047246;28;20454;-80
2022/01/15 10:04:10;;;;;;;9.63;7.10;;;4.40;99.90;;;;;;5049848;28;20523;-81
2022/01/15 10:07:16;;;;;;;9.10;6.30;;;4.30;99.90;;;;;;5028669;28;20459;-81
2022/01/15 10:09:45;;;;;;;9.30;7.30;;;4.20;99.90;;;;;;5063760;28;20460;-80
2022/01/15 10:12:32;;;;;;;12.47;8.90;;;4.20;99.90;;;;;;5041125;28;21007;-82
2022/01/15 10:15:01;;;;;;;8.63;6.57;;;4.30;99.90;;;;;;5043366;28;20491;-82
2022/01/15 10:17:33;;;;;;;9.50;7.00;;;4.30;99.90;;;;;;5051466;28;20481;-82
2022/01/15 10:20:08;;;;;;;10.87;6.97;;;4.20;99.90;;;;;;5032604;28;20460;-82
2022/01/15 10:22:43;;;;;;;11.00;7.80;;;4.20;99.90;;;;;;5034545;28;20456;-81
2022/01/15 10:25:19;;;;;;;8.70;5.30;;;4.20;99.90;;;;;;5060299;28;20562;-82
2022/01/15 10:27:56;;;;;;;6.30;4.90;;;4.10;99.90;;;;;;5046015;28;20461;-82
2022/01/15 10:30:28;;;;;;;10.90;6.73;;;4.30;99.90;;;;;;5046249;28;20468;-81
2022/01/15 10:33:00;;;;;;;8.60;6.70;;;4.30;99.90;;;;;;5061609;28;20454;-82
2022/01/15 10:35:42;;;;;;;7.03;6.03;;;4.30;99.90;;;;;;5042787;28;20933;-80
2022/01/15 10:38:13;;;;;;;10.63;7.20;;;4.20;99.90;;;;;;5042239;28;20456;-82
2022/01/15 10:40:46;;;;;;;10.60;7.53;;;4.20;99.90;;;;;;5046038;28;20469;-82
2022/01/15 10:43:16;;;;;;;10.80;7.43;;;4.20;99.90;;;;;;5046210;28;20478;-81
2022/01/15 10:46:01;;;;;;;9.33;7.13;;;4.20;99.90;;;;;;5046987;28;20510;-80
2022/01/15 10:48:34;;;;;;;9.70;6.90;;;4.30;99.90;;;;;;5048374;28;20431;-80
2022/01/15 10:51:06;;;;;;;11.00;6.93;;;4.30;99.90;;;;;;5029997;28;20455;-81
2022/01/15 10:53:42;;;;;;;6.10;5.10;;;4.20;99.90;;;;;;5044883;28;20520;-80
2022/01/15 10:56:11;;;;;;;8.97;6.50;;;4.40;99.90;;;;;;5045501;28;20505;-80
2022/01/15 10:58:42;;;;;;;9.07;6.83;;;4.60;99.90;;;;;;5041954;28;20464;-81
2022/01/15 11:01:13;;;;;;;9.80;6.47;;;4.60;99.90;;;;;;5047267;28;20438;-80
2022/01/15 11:03:45;;;;;;;8.50;5.93;;;4.50;99.90;;;;;;5045394;28;20542;-80
2022/01/15 11:06:12;;;;;;;8.47;5.30;;;4.40;99.90;;;;;;5050462;28;20538;-80
2022/01/15 11:08:42;;;;;;;9.17;6.87;;;4.80;99.90;;;;;;5061107;28;20453;-80
2022/01/15 11:11:13;;;;;;;9.43;6.10;;;4.70;99.90;;;;;;5033770;28;20488;-83
2022/01/15 11:13:47;;;;;;;7.73;5.70;;;4.80;99.90;;;;;;5042420;28;20451;-82
2022/01/15 11:16:16;;;;;;;8.27;6.40;;;4.90;99.90;;;;;;5028796;28;20499;-81
2022/01/15 11:18:45;;;;;;;10.80;6.60;;;5.00;99.90;;;;;;5022702;28;20458;-81
2022/01/15 11:21:15;;;;;;;8.00;6.30;;;5.10;99.90;;;;;;5043240;28;20526;-80
2022/01/15 11:23:44;;;;;;;7.07;5.30;;;4.80;99.90;;;;;;5059377;28;20440;-81
2022/01/15 11:26:23;;;;;;;8.17;6.33;;;4.90;99.90;;;;;;5041294;28;20466;-81
2022/01/15 11:28:51;;;;;;;8.80;6.07;;;4.80;99.90;;;;;;5058546;28;20806;-81
2022/01/15 11:31:37;;;;;;;7.63;5.40;;;4.90;99.90;;;;;;5041286;28;20540;-81
2022/01/15 11:34:06;;;;;;;6.47;5.63;;;4.80;99.90;;;;;;5057454;28;20444;-81
2022/01/15 11:36:36;;;;;;;7.30;6.20;;;4.80;99.90;;;;;;5037958;28;20881;-81
2022/01/15 11:39:20;;;;;;;7.63;5.93;;;4.90;99.90;;;;;;5037835;28;20452;-81
2022/01/15 11:41:55;;;;;;;9.90;7.07;;;4.90;99.90;;;;;;5056045;28;20464;-81
2022/01/15 11:44:40;;;;;;;8.17;6.67;;;4.90;99.90;;;;;;5040142;28;20490;-81
2022/01/15 11:47:21;;;;;;;8.93;6.90;;;5.00;99.90;;;;;;5038852;28;20915;-80
2022/01/15 11:49:53;;;;;;;9.93;6.60;;;4.80;99.90;;;;;;5020587;28;20786;-81
2022/01/15 11:52:24;;;;;;;8.83;6.73;;;4.60;99.90;;;;;;5019322;28;20493;-81
2022/01/15 11:54:51;;;;;;;9.70;6.30;;;4.90;99.90;;;;;;5027713;28;20494;-82
2022/01/15 11:57:31;;;;;;;6.90;5.40;;;4.90;99.90;;;;;;5023476;28;20483;-82
2022/01/15 12:00:00;;;;;;;9.03;6.67;;;4.90;99.90;;;;;;5044512;28;20498;-82
2022/01/15 12:02:33;;;;;;;7.37;6.47;;;4.80;99.90;;;;;;5061628;28;20976;-82
2022/01/15 12:05:28;;;;;;;9.50;7.03;;;4.80;99.90;;;;;;5054871;28;20589;-83
2022/01/15 12:08:00;;;;;;;8.30;6.30;;;4.90;99.90;;;;;;5040811;28;20452;-81
2022/01/15 12:10:47;;;;;;;8.20;6.33;;;4.90;99.90;;;;;;5043658;28;20480;-82
2022/01/15 12:13:18;;;;;;;9.60;7.10;;;5.00;99.90;;;;;;5043784;28;20443;-82
2022/01/15 12:16:04;;;;;;;7.53;6.73;;;5.00;99.90;;;;;;5043711;28;20488;-82
2022/01/15 12:18:45;;;;;;;8.30;7.07;;;5.10;99.90;;;;;;5050293;28;20537;-83
2022/01/15 12:21:45;;;;;;;10.50;7.60;;;5.20;99.90;;;;;;5047912;28;20446;-82
2022/01/15 12:24:49;;;;;;;10.63;7.70;;;5.10;99.90;;;;;;5030591;28;20450;-82
2022/01/15 12:27:20;;;;;;;8.43;6.47;;;5.40;99.90;;;;;;5029415;28;20457;-81
2022/01/15 12:30:07;;;;;;;9.40;7.93;;;5.40;99.90;;;;;;5041179;28;20485;-83
2022/01/15 12:32:38;;;;;;;10.17;7.37;;;5.10;99.90;;;;;;5057895;28;20465;-81
2022/01/15 12:35:14;;;;;;;9.60;7.17;;;5.00;99.90;;;;;;5050882;28;20495;-82
2022/01/15 12:37:57;;;;;;;8.20;6.33;;;4.80;99.90;;;;;;5049565;28;20433;-82
2022/01/15 12:40:44;;;;;;;10.20;7.57;;;5.00;99.90;;;;;;5058445;28;20465;-82
2022/01/15 12:43:31;;;;;;;8.90;7.27;;;5.10;99.90;;;;;;5053536;28;20442;-82
2022/01/15 12:46:01;;;;;;;9.80;7.20;;;5.20;99.90;;;;;;5026472;28;20489;-82
2022/01/15 12:48:33;;;;;;;12.33;7.60;;;5.20;99.90;;;;;;5043321;28;20455;-82
2022/01/15 12:51:06;;;;;;;8.67;7.30;;;5.00;99.90;;;;;;5040016;28;20459;-82
2022/01/15 12:53:35;;;;;;;9.57;7.97;;;5.00;99.90;;;;;;5042903;28;20475;-82
2022/01/15 12:56:08;;;;;;;8.40;6.57;;;5.10;99.90;;;;;;5042827;28;20932;-83
2022/01/15 12:58:35;;;;;;;6.83;6.00;;;5.20;99.90;;;;;;5058140;28;21027;-83
2022/01/15 13:01:03;;;;;;;7.80;5.20;;;5.20;99.90;;;;;;5062626;28;20481;-82
2022/01/15 13:03:35;;;;;;;7.33;5.63;;;5.10;99.90;;;;;;5064423;28;20546;-80
2022/01/15 13:06:04;;;;;;;7.03;5.00;;;5.00;99.90;;;;;;5030960;28;20491;-81
2022/01/15 13:08:39;;;;;;;7.50;6.13;;;5.00;99.90;;;;;;5044775;28;20467;-81
2022/01/15 13:11:18;;;;;;;8.40;6.40;;;4.80;99.90;;;;;;5048778;28;20553;-82
2022/01/15 13:13:47;;;;;;;8.70;6.60;;;4.90;99.90;;;;;;5047441;28;20484;-80
2022/01/15 13:16:21;;;;;;;10.07;7.37;;;4.80;99.90;;;;;;5028981;28;20488;-79